sensor_id;sensor_type;location;lat;lon;timestamp;P1;durP1;ratioP1;P2;durP2;ratioP2
60612;SDS011;46443;59.792;17.626;2024-01-25T00:02:24;4.80;;;2.43;;
60612;SDS011;46443;59.792;17.626;2024-01-25T00:04:50;4.43;;;2.60;;
60612;SDS011;46443;59.792;17.626;2024-01-25T00:07:16;4.13;;;2.33;;
60612;SDS011;46443;59.792;17.626;2024-01-25T00:09:43;4.00;;;2.20;;
60612;SDS011;46443;59.792;17.626;2024-01-25T00:12:09;4.50;;;2.30;;
60612;SDS011;46443;59.792;17.626;2024-01-25T00:14:35;4.07;;;2.13;;
60612;SDS011;46443;59.792;17.626;2024-01-25T00:17:01;4.60;;;2.37;;
60612;SDS011;46443;59.792;17.626;2024-01-25T00:19:27;7.03;;;2.80;;
60612;SDS011;46443;59.792;17.626;2024-01-25T00:21:53;4.83;;;2.53;;
60612;SDS011;46443;59.792;17.626;2024-01-25T00:24:19;4.93;;;2.17;;
60612;SDS011;46443;59.792;17.626;2024-01-25T00:26:45;3.60;;;2.23;;
60612;SDS011;46443;59.792;17.626;2024-01-25T00:29:11;5.07;;;2.10;;
60612;SDS011;46443;59.792;17.626;2024-01-25T00:31:37;4.03;;;2.30;;
60612;SDS011;46443;59.792;17.626;2024-01-25T00:34:04;3.93;;;2.40;;
60612;SDS011;46443;59.792;17.626;2024-01-25T00:36:30;3.93;;;2.43;;
60612;SDS011;46443;59.792;17.626;2024-01-25T00:38:56;3.90;;;2.17;;
60612;SDS011;46443;59.792;17.626;2024-01-25T00:41:22;4.47;;;2.40;;
60612;SDS011;46443;59.792;17.626;2024-01-25T00:43:49;3.70;;;1.83;;
60612;SDS011;46443;59.792;17.626;2024-01-25T00:46:15;4.80;;;2.37;;
60612;SDS011;46443;59.792;17.626;2024-01-25T00:48:41;5.17;;;2.57;;
60612;SDS011;46443;59.792;17.626;2024-01-25T00:51:08;5.10;;;2.83;;
60612;SDS011;46443;59.792;17.626;2024-01-25T00:53:39;4.80;;;2.20;;
60612;SDS011;46443;59.792;17.626;2024-01-25T00:56:05;4.47;;;2.37;;
60612;SDS011;46443;59.792;17.626;2024-01-25T00:58:31;4.67;;;2.23;;
60612;SDS011;46443;59.792;17.626;2024-01-25T01:00:58;4.30;;;2.33;;
60612;SDS011;46443;59.792;17.626;2024-01-25T01:03:24;7.43;;;2.30;;
60612;SDS011;46443;59.792;17.626;2024-01-25T01:05:50;6.23;;;2.63;;
60612;SDS011;46443;59.792;17.626;2024-01-25T01:08:16;5.30;;;2.70;;
60612;SDS011;46443;59.792;17.626;2024-01-25T01:10:42;6.47;;;2.27;;
60612;SDS011;46443;59.792;17.626;2024-01-25T01:13:08;5.00;;;2.60;;
60612;SDS011;46443;59.792;17.626;2024-01-25T01:15:34;7.47;;;2.80;;
60612;SDS011;46443;59.792;17.626;2024-01-25T01:18:01;4.77;;;2.73;;
60612;SDS011;46443;59.792;17.626;2024-01-25T01:20:27;4.60;;;2.27;;
60612;SDS011;46443;59.792;17.626;2024-01-25T01:22:53;5.20;;;2.33;;
60612;SDS011;46443;59.792;17.626;2024-01-25T01:25:19;5.10;;;2.03;;
60612;SDS011;46443;59.792;17.626;2024-01-25T01:27:45;4.57;;;2.47;;
60612;SDS011;46443;59.792;17.626;2024-01-25T01:30:11;5.50;;;2.10;;
60612;SDS011;46443;59.792;17.626;2024-01-25T01:32:37;5.00;;;2.27;;
60612;SDS011;46443;59.792;17.626;2024-01-25T01:35:03;5.60;;;2.80;;
60612;SDS011;46443;59.792;17.626;2024-01-25T01:37:29;4.57;;;2.10;;
60612;SDS011;46443;59.792;17.626;2024-01-25T01:39:55;5.13;;;2.30;;
60612;SDS011;46443;59.792;17.626;2024-01-25T01:42:24;5.60;;;2.57;;
60612;SDS011;46443;59.792;17.626;2024-01-25T01:44:50;5.03;;;2.20;;
60612;SDS011;46443;59.792;17.626;2024-01-25T01:47:18;4.93;;;2.10;;
60612;SDS011;46443;59.792;17.626;2024-01-25T01:49:44;6.00;;;2.50;;
60612;SDS011;46443;59.792;17.626;2024-01-25T01:52:10;4.33;;;2.40;;
60612;SDS011;46443;59.792;17.626;2024-01-25T01:54:36;5.97;;;3.13;;
60612;SDS011;46443;59.792;17.626;2024-01-25T01:57:03;4.67;;;2.30;;
60612;SDS011;46443;59.792;17.626;2024-01-25T01:59:29;4.80;;;2.23;;
60612;SDS011;46443;59.792;17.626;2024-01-25T02:01:56;4.40;;;2.30;;
60612;SDS011;46443;59.792;17.626;2024-01-25T02:04:22;6.10;;;2.60;;
60612;SDS011;46443;59.792;17.626;2024-01-25T02:06:49;5.73;;;2.60;;
60612;SDS011;46443;59.792;17.626;2024-01-25T02:09:15;9.07;;;3.57;;
60612;SDS011;46443;59.792;17.626;2024-01-25T02:11:41;8.70;;;2.93;;
60612;SDS011;46443;59.792;17.626;2024-01-25T02:14:07;6.07;;;3.07;;
60612;SDS011;46443;59.792;17.626;2024-01-25T02:16:36;4.40;;;2.50;;
60612;SDS011;46443;59.792;17.626;2024-01-25T02:19:03;7.83;;;2.43;;
60612;SDS011;46443;59.792;17.626;2024-01-25T02:21:29;6.23;;;2.50;;
60612;SDS011;46443;59.792;17.626;2024-01-25T02:23:55;6.17;;;2.73;;
60612;SDS011;46443;59.792;17.626;2024-01-25T02:26:21;4.47;;;2.00;;
60612;SDS011;46443;59.792;17.626;2024-01-25T02:28:47;4.50;;;2.37;;
60612;SDS011;46443;59.792;17.626;2024-01-25T02:31:13;3.63;;;2.10;;
60612;SDS011;46443;59.792;17.626;2024-01-25T02:33:39;3.93;;;1.70;;
60612;SDS011;46443;59.792;17.626;2024-01-25T02:36:05;3.07;;;1.63;;
60612;SDS011;46443;59.792;17.626;2024-01-25T02:38:31;3.43;;;1.97;;
60612;SDS011;46443;59.792;17.626;2024-01-25T02:40:57;4.60;;;2.00;;
60612;SDS011;46443;59.792;17.626;2024-01-25T02:43:23;4.95;;;2.25;;
60612;SDS011;46443;59.792;17.626;2024-01-25T02:45:50;4.45;;;2.10;;
60612;SDS011;46443;59.792;17.626;2024-01-25T02:48:16;5.33;;;2.60;;
60612;SDS011;46443;59.792;17.626;2024-01-25T02:50:42;5.93;;;2.78;;
60612;SDS011;46443;59.792;17.626;2024-01-25T02:53:08;6.28;;;3.00;;
60612;SDS011;46443;59.792;17.626;2024-01-25T02:55:34;5.18;;;2.42;;
60612;SDS011;46443;59.792;17.626;2024-01-25T02:58:00;7.53;;;2.53;;
60612;SDS011;46443;59.792;17.626;2024-01-25T03:00:26;5.82;;;3.05;;
60612;SDS011;46443;59.792;17.626;2024-01-25T03:02:52;7.38;;;3.88;;
60612;SDS011;46443;59.792;17.626;2024-01-25T03:05:18;6.07;;;2.83;;
60612;SDS011;46443;59.792;17.626;2024-01-25T03:07:45;6.55;;;3.35;;
60612;SDS011;46443;59.792;17.626;2024-01-25T03:10:11;6.93;;;3.47;;
60612;SDS011;46443;59.792;17.626;2024-01-25T03:12:37;6.90;;;3.20;;
60612;SDS011;46443;59.792;17.626;2024-01-25T03:15:03;6.47;;;3.33;;
60612;SDS011;46443;59.792;17.626;2024-01-25T03:17:29;5.97;;;3.20;;
60612;SDS011;46443;59.792;17.626;2024-01-25T03:19:55;6.88;;;3.60;;
60612;SDS011;46443;59.792;17.626;2024-01-25T03:22:21;6.33;;;3.10;;
60612;SDS011;46443;59.792;17.626;2024-01-25T03:24:47;8.18;;;3.50;;
60612;SDS011;46443;59.792;17.626;2024-01-25T03:27:13;5.60;;;3.00;;
60612;SDS011;46443;59.792;17.626;2024-01-25T03:29:43;5.68;;;3.00;;
60612;SDS011;46443;59.792;17.626;2024-01-25T03:32:09;6.07;;;3.05;;
60612;SDS011;46443;59.792;17.626;2024-01-25T03:34:36;7.75;;;3.38;;
60612;SDS011;46443;59.792;17.626;2024-01-25T03:37:02;7.43;;;3.90;;
60612;SDS011;46443;59.792;17.626;2024-01-25T03:39:28;5.82;;;2.95;;
60612;SDS011;46443;59.792;17.626;2024-01-25T03:41:54;4.88;;;2.78;;
60612;SDS011;46443;59.792;17.626;2024-01-25T03:44:20;7.60;;;3.15;;
60612;SDS011;46443;59.792;17.626;2024-01-25T03:46:46;5.88;;;2.92;;
60612;SDS011;46443;59.792;17.626;2024-01-25T03:49:12;5.80;;;2.93;;
60612;SDS011;46443;59.792;17.626;2024-01-25T03:51:38;6.18;;;3.13;;
60612;SDS011;46443;59.792;17.626;2024-01-25T03:54:04;5.10;;;3.03;;
60612;SDS011;46443;59.792;17.626;2024-01-25T03:56:30;4.67;;;2.70;;
60612;SDS011;46443;59.792;17.626;2024-01-25T03:58:57;6.68;;;2.75;;
60612;SDS011;46443;59.792;17.626;2024-01-25T04:01:23;6.67;;;2.87;;
60612;SDS011;46443;59.792;17.626;2024-01-25T04:03:49;7.60;;;3.10;;
60612;SDS011;46443;59.792;17.626;2024-01-25T04:06:15;7.25;;;3.13;;
60612;SDS011;46443;59.792;17.626;2024-01-25T04:08:42;4.43;;;2.70;;
60612;SDS011;46443;59.792;17.626;2024-01-25T04:11:08;6.00;;;3.27;;
60612;SDS011;46443;59.792;17.626;2024-01-25T04:13:35;6.68;;;3.55;;
60612;SDS011;46443;59.792;17.626;2024-01-25T04:16:01;7.25;;;3.50;;
60612;SDS011;46443;59.792;17.626;2024-01-25T04:18:27;7.35;;;3.53;;
60612;SDS011;46443;59.792;17.626;2024-01-25T04:20:53;8.27;;;3.85;;
60612;SDS011;46443;59.792;17.626;2024-01-25T04:23:19;6.55;;;3.75;;
60612;SDS011;46443;59.792;17.626;2024-01-25T04:25:45;6.37;;;3.80;;
60612;SDS011;46443;59.792;17.626;2024-01-25T04:28:12;5.90;;;3.38;;
60612;SDS011;46443;59.792;17.626;2024-01-25T04:30:38;5.22;;;3.28;;
60612;SDS011;46443;59.792;17.626;2024-01-25T04:33:04;9.48;;;4.10;;
60612;SDS011;46443;59.792;17.626;2024-01-25T04:35:30;6.65;;;4.03;;
60612;SDS011;46443;59.792;17.626;2024-01-25T04:37:56;7.03;;;3.53;;
60612;SDS011;46443;59.792;17.626;2024-01-25T04:40:22;7.47;;;3.27;;
60612;SDS011;46443;59.792;17.626;2024-01-25T04:42:49;8.40;;;3.67;;
60612;SDS011;46443;59.792;17.626;2024-01-25T04:45:15;6.90;;;3.67;;
60612;SDS011;46443;59.792;17.626;2024-01-25T04:47:41;7.28;;;3.20;;
60612;SDS011;46443;59.792;17.626;2024-01-25T04:50:07;5.95;;;3.17;;
60612;SDS011;46443;59.792;17.626;2024-01-25T04:52:33;6.22;;;2.95;;
60612;SDS011;46443;59.792;17.626;2024-01-25T04:54:59;6.85;;;3.13;;
60612;SDS011;46443;59.792;17.626;2024-01-25T04:57:25;6.57;;;2.80;;
60612;SDS011;46443;59.792;17.626;2024-01-25T04:59:51;4.90;;;2.30;;
60612;SDS011;46443;59.792;17.626;2024-01-25T05:02:18;6.97;;;2.60;;
60612;SDS011;46443;59.792;17.626;2024-01-25T05:04:44;4.22;;;2.53;;
60612;SDS011;46443;59.792;17.626;2024-01-25T05:07:10;5.00;;;2.85;;
60612;SDS011;46443;59.792;17.626;2024-01-25T05:09:36;5.55;;;2.20;;
60612;SDS011;46443;59.792;17.626;2024-01-25T05:12:02;4.80;;;2.30;;
60612;SDS011;46443;59.792;17.626;2024-01-25T05:14:28;4.55;;;2.40;;
60612;SDS011;46443;59.792;17.626;2024-01-25T05:16:54;4.15;;;2.15;;
60612;SDS011;46443;59.792;17.626;2024-01-25T05:19:20;3.85;;;2.30;;
60612;SDS011;46443;59.792;17.626;2024-01-25T05:21:46;4.88;;;2.20;;
60612;SDS011;46443;59.792;17.626;2024-01-25T05:24:12;4.95;;;2.33;;
60612;SDS011;46443;59.792;17.626;2024-01-25T05:26:39;3.72;;;2.50;;
60612;SDS011;46443;59.792;17.626;2024-01-25T05:29:05;4.55;;;2.10;;
60612;SDS011;46443;59.792;17.626;2024-01-25T05:31:31;3.47;;;2.22;;
60612;SDS011;46443;59.792;17.626;2024-01-25T05:33:57;3.70;;;2.00;;
60612;SDS011;46443;59.792;17.626;2024-01-25T05:36:23;7.32;;;2.40;;
60612;SDS011;46443;59.792;17.626;2024-01-25T05:38:49;2.90;;;1.80;;
60612;SDS011;46443;59.792;17.626;2024-01-25T05:41:15;4.22;;;2.10;;
60612;SDS011;46443;59.792;17.626;2024-01-25T05:43:41;4.88;;;2.30;;
60612;SDS011;46443;59.792;17.626;2024-01-25T05:46:07;3.70;;;1.77;;
60612;SDS011;46443;59.792;17.626;2024-01-25T05:48:34;4.15;;;2.40;;
60612;SDS011;46443;59.792;17.626;2024-01-25T05:51:00;3.95;;;2.28;;
60612;SDS011;46443;59.792;17.626;2024-01-25T05:53:27;3.47;;;1.90;;
60612;SDS011;46443;59.792;17.626;2024-01-25T05:55:53;3.95;;;1.88;;
60612;SDS011;46443;59.792;17.626;2024-01-25T05:58:19;3.58;;;1.90;;
60612;SDS011;46443;59.792;17.626;2024-01-25T06:00:45;4.63;;;1.98;;
60612;SDS011;46443;59.792;17.626;2024-01-25T06:03:11;3.10;;;2.13;;
60612;SDS011;46443;59.792;17.626;2024-01-25T06:05:37;3.05;;;1.98;;
60612;SDS011;46443;59.792;17.626;2024-01-25T06:08:03;2.88;;;1.80;;
60612;SDS011;46443;59.792;17.626;2024-01-25T06:10:29;3.78;;;2.13;;
60612;SDS011;46443;59.792;17.626;2024-01-25T06:12:58;3.75;;;1.88;;
60612;SDS011;46443;59.792;17.626;2024-01-25T06:15:24;3.78;;;1.98;;
60612;SDS011;46443;59.792;17.626;2024-01-25T06:17:50;5.03;;;2.53;;
60612;SDS011;46443;59.792;17.626;2024-01-25T06:20:16;3.60;;;2.10;;
60612;SDS011;46443;59.792;17.626;2024-01-25T06:22:42;2.63;;;1.90;;
60612;SDS011;46443;59.792;17.626;2024-01-25T06:25:08;3.55;;;2.10;;
60612;SDS011;46443;59.792;17.626;2024-01-25T06:27:34;4.15;;;2.40;;
60612;SDS011;46443;59.792;17.626;2024-01-25T06:30:00;3.40;;;1.80;;
60612;SDS011;46443;59.792;17.626;2024-01-25T06:32:27;3.53;;;2.33;;
60612;SDS011;46443;59.792;17.626;2024-01-25T06:34:53;3.33;;;2.20;;
60612;SDS011;46443;59.792;17.626;2024-01-25T06:37:19;3.67;;;2.20;;
60612;SDS011;46443;59.792;17.626;2024-01-25T06:39:45;3.67;;;2.38;;
60612;SDS011;46443;59.792;17.626;2024-01-25T06:42:11;3.08;;;1.92;;
60612;SDS011;46443;59.792;17.626;2024-01-25T06:44:37;4.95;;;2.10;;
60612;SDS011;46443;59.792;17.626;2024-01-25T06:47:03;4.05;;;2.38;;
60612;SDS011;46443;59.792;17.626;2024-01-25T06:49:29;5.20;;;2.47;;
60612;SDS011;46443;59.792;17.626;2024-01-25T06:51:56;3.78;;;2.05;;
60612;SDS011;46443;59.792;17.626;2024-01-25T06:54:22;3.85;;;2.20;;
60612;SDS011;46443;59.792;17.626;2024-01-25T06:56:48;3.53;;;2.35;;
60612;SDS011;46443;59.792;17.626;2024-01-25T06:59:16;4.32;;;2.30;;
60612;SDS011;46443;59.792;17.626;2024-01-25T07:01:42;3.60;;;2.67;;
60612;SDS011;46443;59.792;17.626;2024-01-25T07:04:08;4.22;;;2.60;;
60612;SDS011;46443;59.792;17.626;2024-01-25T07:06:34;4.60;;;2.17;;
60612;SDS011;46443;59.792;17.626;2024-01-25T07:09:00;4.30;;;2.40;;
60612;SDS011;46443;59.792;17.626;2024-01-25T07:11:27;3.75;;;2.25;;
60612;SDS011;46443;59.792;17.626;2024-01-25T07:13:53;4.10;;;2.30;;
60612;SDS011;46443;59.792;17.626;2024-01-25T07:16:19;3.38;;;2.33;;
60612;SDS011;46443;59.792;17.626;2024-01-25T07:18:46;3.83;;;2.47;;
60612;SDS011;46443;59.792;17.626;2024-01-25T07:21:12;8.43;;;2.70;;
60612;SDS011;46443;59.792;17.626;2024-01-25T07:23:38;3.95;;;2.42;;
60612;SDS011;46443;59.792;17.626;2024-01-25T07:26:04;4.30;;;2.33;;
60612;SDS011;46443;59.792;17.626;2024-01-25T07:28:31;4.07;;;2.70;;
60612;SDS011;46443;59.792;17.626;2024-01-25T07:30:57;4.60;;;2.67;;
60612;SDS011;46443;59.792;17.626;2024-01-25T07:33:23;4.70;;;3.00;;
60612;SDS011;46443;59.792;17.626;2024-01-25T07:35:50;4.50;;;2.70;;
60612;SDS011;46443;59.792;17.626;2024-01-25T07:38:16;6.13;;;3.38;;
60612;SDS011;46443;59.792;17.626;2024-01-25T07:40:42;5.30;;;3.30;;
60612;SDS011;46443;59.792;17.626;2024-01-25T07:43:08;5.32;;;3.00;;
60612;SDS011;46443;59.792;17.626;2024-01-25T07:45:34;7.55;;;3.33;;
60612;SDS011;46443;59.792;17.626;2024-01-25T07:48:00;5.75;;;3.60;;
60612;SDS011;46443;59.792;17.626;2024-01-25T07:50:27;8.20;;;4.00;;
60612;SDS011;46443;59.792;17.626;2024-01-25T07:52:54;5.22;;;3.40;;
60612;SDS011;46443;59.792;17.626;2024-01-25T07:55:20;6.80;;;3.75;;
60612;SDS011;46443;59.792;17.626;2024-01-25T07:57:46;6.95;;;3.50;;
60612;SDS011;46443;59.792;17.626;2024-01-25T08:00:12;7.47;;;3.80;;
60612;SDS011;46443;59.792;17.626;2024-01-25T08:02:38;7.18;;;3.53;;
60612;SDS011;46443;59.792;17.626;2024-01-25T08:05:06;10.45;;;4.20;;
60612;SDS011;46443;59.792;17.626;2024-01-25T08:07:32;5.30;;;3.45;;
60612;SDS011;46443;59.792;17.626;2024-01-25T08:09:58;6.63;;;3.97;;
60612;SDS011;46443;59.792;17.626;2024-01-25T08:12:25;8.15;;;3.78;;
60612;SDS011;46443;59.792;17.626;2024-01-25T08:14:51;10.02;;;4.65;;
60612;SDS011;46443;59.792;17.626;2024-01-25T08:17:17;6.28;;;3.85;;
60612;SDS011;46443;59.792;17.626;2024-01-25T08:19:44;10.40;;;4.00;;
60612;SDS011;46443;59.792;17.626;2024-01-25T08:22:11;8.95;;;4.60;;
60612;SDS011;46443;59.792;17.626;2024-01-25T08:24:38;6.20;;;3.83;;
60612;SDS011;46443;59.792;17.626;2024-01-25T08:27:04;7.65;;;4.30;;
60612;SDS011;46443;59.792;17.626;2024-01-25T08:29:32;7.95;;;4.13;;
60612;SDS011;46443;59.792;17.626;2024-01-25T08:31:58;6.45;;;4.00;;
60612;SDS011;46443;59.792;17.626;2024-01-25T08:34:24;7.07;;;4.03;;
60612;SDS011;46443;59.792;17.626;2024-01-25T08:36:50;6.68;;;4.53;;
60612;SDS011;46443;59.792;17.626;2024-01-25T08:39:16;6.07;;;3.60;;
60612;SDS011;46443;59.792;17.626;2024-01-25T08:41:42;6.63;;;4.22;;
60612;SDS011;46443;59.792;17.626;2024-01-25T08:44:10;4.60;;;3.17;;
60612;SDS011;46443;59.792;17.626;2024-01-25T08:46:36;7.22;;;3.58;;
60612;SDS011;46443;59.792;17.626;2024-01-25T08:49:03;5.60;;;3.38;;
60612;SDS011;46443;59.792;17.626;2024-01-25T08:51:33;4.75;;;3.40;;
60612;SDS011;46443;59.792;17.626;2024-01-25T08:53:59;5.47;;;3.40;;
60612;SDS011;46443;59.792;17.626;2024-01-25T08:56:26;5.28;;;3.25;;
60612;SDS011;46443;59.792;17.626;2024-01-25T08:58:52;6.25;;;3.53;;
60612;SDS011;46443;59.792;17.626;2024-01-25T09:01:18;5.72;;;3.47;;
60612;SDS011;46443;59.792;17.626;2024-01-25T09:03:44;5.15;;;3.08;;
60612;SDS011;46443;59.792;17.626;2024-01-25T09:06:10;4.07;;;2.92;;
60612;SDS011;46443;59.792;17.626;2024-01-25T09:08:37;4.68;;;2.95;;
60612;SDS011;46443;59.792;17.626;2024-01-25T09:11:03;7.22;;;3.00;;
60612;SDS011;46443;59.792;17.626;2024-01-25T09:13:29;4.85;;;2.83;;
60612;SDS011;46443;59.792;17.626;2024-01-25T09:15:57;6.90;;;3.28;;
60612;SDS011;46443;59.792;17.626;2024-01-25T09:18:23;7.00;;;3.28;;
60612;SDS011;46443;59.792;17.626;2024-01-25T09:20:49;6.50;;;3.25;;
60612;SDS011;46443;59.792;17.626;2024-01-25T09:23:16;5.20;;;3.15;;
60612;SDS011;46443;59.792;17.626;2024-01-25T09:25:43;6.90;;;4.00;;
60612;SDS011;46443;59.792;17.626;2024-01-25T09:28:09;4.93;;;2.95;;
60612;SDS011;46443;59.792;17.626;2024-01-25T09:30:37;9.00;;;3.22;;
60612;SDS011;46443;59.792;17.626;2024-01-25T09:33:04;5.07;;;3.22;;
60612;SDS011;46443;59.792;17.626;2024-01-25T09:35:30;4.57;;;3.08;;
60612;SDS011;46443;59.792;17.626;2024-01-25T09:37:57;5.80;;;2.85;;
60612;SDS011;46443;59.792;17.626;2024-01-25T09:40:23;4.75;;;2.42;;
60612;SDS011;46443;59.792;17.626;2024-01-25T09:42:49;5.55;;;2.83;;
60612;SDS011;46443;59.792;17.626;2024-01-25T09:45:17;3.30;;;2.30;;
60612;SDS011;46443;59.792;17.626;2024-01-25T09:47:44;4.85;;;2.10;;
60612;SDS011;46443;59.792;17.626;2024-01-25T09:50:10;2.35;;;1.70;;
60612;SDS011;46443;59.792;17.626;2024-01-25T09:52:37;3.55;;;2.05;;
60612;SDS011;46443;59.792;17.626;2024-01-25T09:55:07;3.67;;;2.00;;
60612;SDS011;46443;59.792;17.626;2024-01-25T09:57:34;3.47;;;2.30;;
60612;SDS011;46443;59.792;17.626;2024-01-25T10:00:04;4.03;;;2.22;;
60612;SDS011;46443;59.792;17.626;2024-01-25T10:02:36;3.60;;;2.10;;
60612;SDS011;46443;59.792;17.626;2024-01-25T10:05:02;2.75;;;2.00;;
60612;SDS011;46443;59.792;17.626;2024-01-25T10:07:35;3.40;;;2.28;;
60612;SDS011;46443;59.792;17.626;2024-01-25T10:10:02;3.70;;;2.00;;
60612;SDS011;46443;59.792;17.626;2024-01-25T10:12:30;3.88;;;2.00;;
60612;SDS011;46443;59.792;17.626;2024-01-25T10:14:56;4.90;;;2.15;;
60612;SDS011;46443;59.792;17.626;2024-01-25T10:17:22;3.13;;;1.77;;
60612;SDS011;46443;59.792;17.626;2024-01-25T10:19:48;3.00;;;1.80;;
60612;SDS011;46443;59.792;17.626;2024-01-25T10:22:14;3.97;;;1.70;;
60612;SDS011;46443;59.792;17.626;2024-01-25T10:24:40;2.25;;;1.50;;
60612;SDS011;46443;59.792;17.626;2024-01-25T10:27:09;3.42;;;1.80;;
60612;SDS011;46443;59.792;17.626;2024-01-25T10:29:36;2.15;;;1.58;;
60612;SDS011;46443;59.792;17.626;2024-01-25T10:32:02;2.65;;;1.75;;
60612;SDS011;46443;59.792;17.626;2024-01-25T10:34:29;1.73;;;1.55;;
60612;SDS011;46443;59.792;17.626;2024-01-25T10:36:56;1.95;;;1.55;;
60612;SDS011;46443;59.792;17.626;2024-01-25T10:39:24;1.70;;;1.40;;
60612;SDS011;46443;59.792;17.626;2024-01-25T10:41:50;2.92;;;1.60;;
60612;SDS011;46443;59.792;17.626;2024-01-25T10:44:17;2.22;;;1.50;;
60612;SDS011;46443;59.792;17.626;2024-01-25T10:46:46;3.40;;;1.77;;
60612;SDS011;46443;59.792;17.626;2024-01-25T10:49:13;4.13;;;1.70;;
60612;SDS011;46443;59.792;17.626;2024-01-25T10:51:39;2.08;;;1.42;;
60612;SDS011;46443;59.792;17.626;2024-01-25T10:54:09;2.90;;;1.65;;
60612;SDS011;46443;59.792;17.626;2024-01-25T10:56:36;4.00;;;1.55;;
60612;SDS011;46443;59.792;17.626;2024-01-25T10:59:03;2.45;;;1.55;;
60612;SDS011;46443;59.792;17.626;2024-01-25T11:01:29;3.95;;;1.80;;
60612;SDS011;46443;59.792;17.626;2024-01-25T11:03:55;1.45;;;1.30;;
60612;SDS011;46443;59.792;17.626;2024-01-25T11:06:21;2.38;;;1.70;;
60612;SDS011;46443;59.792;17.626;2024-01-25T11:08:48;2.85;;;1.52;;
60612;SDS011;46443;59.792;17.626;2024-01-25T11:11:14;3.67;;;1.70;;
60612;SDS011;46443;59.792;17.626;2024-01-25T11:13:41;4.03;;;1.60;;
60612;SDS011;46443;59.792;17.626;2024-01-25T11:16:17;3.38;;;2.08;;
60612;SDS011;46443;59.792;17.626;2024-01-25T11:18:50;4.40;;;1.80;;
60612;SDS011;46443;59.792;17.626;2024-01-25T11:21:39;1.60;;;1.50;;
60612;SDS011;46443;59.792;17.626;2024-01-25T11:24:03;2.85;;;1.65;;
60612;SDS011;46443;59.792;17.626;2024-01-25T11:26:29;2.05;;;1.52;;
60612;SDS011;46443;59.792;17.626;2024-01-25T11:28:57;2.00;;;1.52;;
60612;SDS011;46443;59.792;17.626;2024-01-25T11:31:25;3.45;;;1.70;;
60612;SDS011;46443;59.792;17.626;2024-01-25T11:33:53;2.17;;;1.38;;
60612;SDS011;46443;59.792;17.626;2024-01-25T11:38:48;2.17;;;1.17;;
60612;SDS011;46443;59.792;17.626;2024-01-25T11:41:14;2.42;;;1.40;;
60612;SDS011;46443;59.792;17.626;2024-01-25T11:43:41;2.33;;;1.50;;
60612;SDS011;46443;59.792;17.626;2024-01-25T11:46:07;1.92;;;1.58;;
60612;SDS011;46443;59.792;17.626;2024-01-25T11:48:33;3.38;;;1.80;;
60612;SDS011;46443;59.792;17.626;2024-01-25T11:51:02;2.75;;;1.50;;
60612;SDS011;46443;59.792;17.626;2024-01-25T11:53:28;2.22;;;1.52;;
60612;SDS011;46443;59.792;17.626;2024-01-25T11:55:54;2.08;;;1.55;;
60612;SDS011;46443;59.792;17.626;2024-01-25T11:58:21;3.25;;;1.60;;
60612;SDS011;46443;59.792;17.626;2024-01-25T12:00:48;2.20;;;1.50;;
60612;SDS011;46443;59.792;17.626;2024-01-25T12:03:14;3.13;;;1.75;;
60612;SDS011;46443;59.792;17.626;2024-01-25T12:05:41;1.38;;;1.27;;
60612;SDS011;46443;59.792;17.626;2024-01-25T12:08:12;3.53;;;1.70;;
60612;SDS011;46443;59.792;17.626;2024-01-25T12:10:38;2.42;;;1.70;;
60612;SDS011;46443;59.792;17.626;2024-01-25T12:13:08;1.88;;;1.50;;
60612;SDS011;46443;59.792;17.626;2024-01-25T12:15:34;3.33;;;1.88;;
60612;SDS011;46443;59.792;17.626;2024-01-25T12:18:01;2.30;;;1.55;;
60612;SDS011;46443;59.792;17.626;2024-01-25T12:20:28;2.60;;;1.65;;
60612;SDS011;46443;59.792;17.626;2024-01-25T12:22:54;1.95;;;1.60;;
60612;SDS011;46443;59.792;17.626;2024-01-25T12:25:20;2.72;;;1.50;;
60612;SDS011;46443;59.792;17.626;2024-01-25T12:27:47;2.72;;;1.67;;
60612;SDS011;46443;59.792;17.626;2024-01-25T12:30:15;2.40;;;1.58;;
60612;SDS011;46443;59.792;17.626;2024-01-25T12:32:41;1.98;;;1.30;;
60612;SDS011;46443;59.792;17.626;2024-01-25T12:35:08;2.75;;;1.40;;
60612;SDS011;46443;59.792;17.626;2024-01-25T12:37:35;3.95;;;1.70;;
60612;SDS011;46443;59.792;17.626;2024-01-25T12:40:01;3.58;;;1.67;;
60612;SDS011;46443;59.792;17.626;2024-01-25T12:42:27;2.35;;;1.58;;
60612;SDS011;46443;59.792;17.626;2024-01-25T12:44:53;1.65;;;1.20;;
60612;SDS011;46443;59.792;17.626;2024-01-25T12:47:19;2.45;;;1.33;;
60612;SDS011;46443;59.792;17.626;2024-01-25T12:49:46;1.40;;;1.30;;
60612;SDS011;46443;59.792;17.626;2024-01-25T12:52:12;1.48;;;1.30;;
60612;SDS011;46443;59.792;17.626;2024-01-25T12:54:39;3.28;;;1.50;;
60612;SDS011;46443;59.792;17.626;2024-01-25T12:57:06;1.52;;;1.20;;
60612;SDS011;46443;59.792;17.626;2024-01-25T12:59:32;1.50;;;1.40;;
60612;SDS011;46443;59.792;17.626;2024-01-25T13:01:59;2.40;;;1.60;;
60612;SDS011;46443;59.792;17.626;2024-01-25T13:04:25;1.55;;;1.40;;
60612;SDS011;46443;59.792;17.626;2024-01-25T13:06:52;3.58;;;1.73;;
60612;SDS011;46443;59.792;17.626;2024-01-25T13:09:24;1.33;;;1.23;;
60612;SDS011;46443;59.792;17.626;2024-01-25T13:11:51;1.88;;;1.50;;
60612;SDS011;46443;59.792;17.626;2024-01-25T13:14:20;3.47;;;1.20;;
60612;SDS011;46443;59.792;17.626;2024-01-25T13:16:46;6.30;;;1.80;;
60612;SDS011;46443;59.792;17.626;2024-01-25T13:19:12;2.38;;;1.50;;
60612;SDS011;46443;59.792;17.626;2024-01-25T13:21:38;1.80;;;1.38;;
60612;SDS011;46443;59.792;17.626;2024-01-25T13:24:04;1.73;;;1.35;;
60612;SDS011;46443;59.792;17.626;2024-01-25T13:26:32;3.40;;;1.60;;
60612;SDS011;46443;59.792;17.626;2024-01-25T13:28:58;1.92;;;1.42;;
60612;SDS011;46443;59.792;17.626;2024-01-25T13:31:24;2.83;;;1.38;;
60612;SDS011;46443;59.792;17.626;2024-01-25T13:33:50;2.13;;;1.50;;
60612;SDS011;46443;59.792;17.626;2024-01-25T13:36:16;1.85;;;1.45;;
60612;SDS011;46443;59.792;17.626;2024-01-25T13:38:42;1.40;;;1.30;;
60612;SDS011;46443;59.792;17.626;2024-01-25T13:41:08;2.80;;;1.50;;
60612;SDS011;46443;59.792;17.626;2024-01-25T13:43:35;1.80;;;1.48;;
60612;SDS011;46443;59.792;17.626;2024-01-25T13:46:01;2.53;;;1.52;;
60612;SDS011;46443;59.792;17.626;2024-01-25T13:48:27;1.40;;;1.30;;
60612;SDS011;46443;59.792;17.626;2024-01-25T13:50:53;3.45;;;1.50;;
60612;SDS011;46443;59.792;17.626;2024-01-25T13:53:19;1.55;;;1.25;;
60612;SDS011;46443;59.792;17.626;2024-01-25T13:55:45;1.67;;;1.50;;
60612;SDS011;46443;59.792;17.626;2024-01-25T13:58:11;1.55;;;1.33;;
60612;SDS011;46443;59.792;17.626;2024-01-25T14:00:37;1.80;;;1.50;;
60612;SDS011;46443;59.792;17.626;2024-01-25T14:03:03;1.67;;;1.30;;
60612;SDS011;46443;59.792;17.626;2024-01-25T14:05:29;3.40;;;1.65;;
60612;SDS011;46443;59.792;17.626;2024-01-25T14:07:56;1.58;;;1.33;;
60612;SDS011;46443;59.792;17.626;2024-01-25T14:10:22;1.60;;;1.35;;
60612;SDS011;46443;59.792;17.626;2024-01-25T14:12:48;2.53;;;1.50;;
60612;SDS011;46443;59.792;17.626;2024-01-25T14:15:15;1.35;;;1.25;;
60612;SDS011;46443;59.792;17.626;2024-01-25T14:17:41;2.35;;;1.60;;
60612;SDS011;46443;59.792;17.626;2024-01-25T14:20:07;1.40;;;1.30;;
60612;SDS011;46443;59.792;17.626;2024-01-25T14:22:33;2.15;;;1.63;;
60612;SDS011;46443;59.792;17.626;2024-01-25T14:24:59;3.90;;;1.63;;
60612;SDS011;46443;59.792;17.626;2024-01-25T14:27:26;3.85;;;1.40;;
60612;SDS011;46443;59.792;17.626;2024-01-25T14:29:52;3.17;;;1.50;;
60612;SDS011;46443;59.792;17.626;2024-01-25T14:32:18;3.22;;;1.48;;